Time;durP1;ratioP1;P1;durP2;ratioP2;P2;SDS_P1;SDS_P2;PMS_P1;PMS_P2;Temp;Humidity;BMP_temperature;BMP_pressure;BME280_temperature;BME280_humidity;BME280_pressure;Samples;Min_cycle;Max_cycle;Signal;HPM_P1;HPM_P2
2022/09/02 00:02:06;;;;;;;0.55;0.40;;;;;;;12.13;63.83;100673.16;1697443;82;20139;-75
2022/09/02 00:04:32;;;;;;;3.45;0.50;;;;;;;12.06;63.98;100671.75;1697504;84;20992;-73
2022/09/02 00:06:59;;;;;;;0.80;0.50;;;;;;;12.05;64.41;100675.94;1696950;83;21049;-74
2022/09/02 00:09:25;;;;;;;2.00;0.88;;;;;;;12.06;64.54;100676.27;1696466;83;21568;-74
2022/09/02 00:11:54;;;;;;;0.82;0.57;;;;;;;12.05;64.54;100671.93;1688279;83;21509;-73
2022/09/02 00:14:29;;;;;;;0.98;0.30;;;;;;;12.03;64.66;100680.64;1677078;84;21083;-73
2022/09/02 00:16:55;;;;;;;1.87;0.70;;;;;;;12.01;64.84;100682.68;1675461;85;21500;-75
2022/09/02 00:19:23;;;;;;;1.55;0.80;;;;;;;11.96;64.94;100680.59;1671170;84;21152;-73
2022/09/02 00:21:52;;;;;;;0.65;0.40;;;;;;;11.94;65.06;100683.11;1680594;85;21547;-73
2022/09/02 00:24:19;;;;;;;1.72;0.35;;;;;;;11.94;65.18;100685.78;1699818;83;21596;-74
2022/09/02 00:26:46;;;;;;;0.60;0.40;;;;;;;11.93;65.32;100679.62;1703271;83;21166;-74
2022/09/02 00:29:14;;;;;;;1.75;0.70;;;;;;;11.95;65.30;100684.78;1695866;84;21068;-73
2022/09/02 00:31:43;;;;;;;1.37;0.45;;;;;;;11.95;65.46;100682.11;1695734;83;21025;-72
2022/09/02 00:34:12;;;;;;;1.82;0.40;;;;;;;11.94;65.41;100686.64;1698325;83;21041;-73
2022/09/02 00:36:38;;;;;;;4.12;0.82;;;;;;;11.93;65.38;100687.64;1702086;84;21494;-74
2022/09/02 00:39:07;;;;;;;1.57;0.40;;;;;;;11.87;65.37;100694.53;1703001;84;21048;-71
2022/09/02 00:41:36;;;;;;;3.17;0.35;;;;;;;11.84;65.47;100694.08;1698959;83;21227;-76
2022/09/02 00:44:08;;;;;;;1.20;0.25;;;;;;;11.85;66.00;100693.07;1702160;84;21042;-72
2022/09/02 00:46:34;;;;;;;0.68;0.42;;;;;;;11.84;65.58;100692.22;1628694;87;21217;-72
2022/09/02 00:49:24;;;;;;;0.90;0.50;;;;;;;11.80;65.67;100698.96;1631546;87;21112;-72
2022/09/02 00:52:05;;;;;;;1.45;0.65;;;;;;;11.76;65.82;100700.88;1636654;86;21011;-75
2022/09/02 00:54:37;;;;;;;1.30;0.50;;;;;;;11.69;66.04;100703.45;1634002;86;21094;-76
2022/09/02 00:57:11;;;;;;;1.60;0.30;;;;;;;11.66;66.19;100706.51;1629473;86;21119;-73
2022/09/02 00:59:46;;;;;;;0.60;0.40;;;;;;;11.64;66.44;100711.18;1635755;86;21011;-72
2022/09/02 01:02:13;;;;;;;2.30;0.43;;;;;;;11.65;66.69;100712.84;1637439;86;21070;-72
2022/09/02 01:04:41;;;;;;;2.12;0.78;;;;;;;11.64;66.67;100717.37;1634551;86;21070;-75
2022/09/02 01:07:08;;;;;;;1.40;0.30;;;;;;;11.62;66.79;100717.22;1638470;86;21114;-75
2022/09/02 01:09:36;;;;;;;1.05;0.65;;;;;;;11.60;67.13;100718.76;1641235;86;21347;-74
2022/09/02 01:12:05;;;;;;;2.17;0.40;;;;;;;11.62;66.88;100719.40;1625169;86;21106;-74
2022/09/02 01:14:33;;;;;;;0.70;0.40;;;;;;;11.61;66.68;100722.25;1637683;86;21048;-77
2022/09/02 01:17:01;;;;;;;1.30;0.70;;;;;;;11.56;67.19;100726.80;1635095;86;21090;-74
2022/09/02 01:19:37;;;;;;;2.92;0.45;;;;;;;11.57;67.64;100720.97;1635941;86;21050;-73
2022/09/02 01:22:26;;;;;;;1.50;0.57;;;;;;;11.57;67.40;100719.12;1643161;85;21517;-74
2022/09/02 01:24:59;;;;;;;1.07;0.33;;;;;;;11.54;67.28;100725.33;1655562;85;21049;-73
2022/09/02 01:27:26;;;;;;;2.58;0.70;;;;;;;11.49;67.74;100725.39;1662070;84;21038;-74
2022/09/02 01:29:55;;;;;;;;;;;;;;;11.49;68.10;100728.05;1671340;85;21186;-72
2022/09/02 01:32:23;;;;;;;1.57;0.45;;;;;;;11.53;68.22;100731.67;1669845;85;20180;-75
2022/09/02 01:34:50;;;;;;;0.60;0.40;;;;;;;11.51;68.17;100737.22;1638740;85;21038;-73
2022/09/02 01:37:17;;;;;;;1.17;0.78;;;;;;;11.50;67.97;100742.22;1620943;87;21094;-74
2022/09/02 01:39:44;;;;;;;1.10;0.50;;;;;;;11.45;68.09;100741.94;1623080;88;21483;-74
2022/09/02 01:42:12;;;;;;;1.12;0.65;;;;;;;11.37;68.44;100742.86;1625226;86;21013;-74
2022/09/02 01:44:42;;;;;;;0.93;0.60;;;;;;;11.32;69.01;100741.27;1638661;86;21036;-72
2022/09/02 01:47:12;;;;;;;1.25;1.02;;;;;;;11.33;70.10;100744.25;1659554;86;21513;-72
2022/09/02 01:49:39;;;;;;;3.33;1.05;;;;;;;11.38;70.24;100747.20;1610784;89;21019;-74
2022/09/02 01:52:07;;;;;;;1.10;0.90;;;;;;;11.38;70.16;100748.53;1638720;86;21026;-74
2022/09/02 01:54:35;;;;;;;2.65;1.25;;;;;;;11.37;70.85;100748.20;1639805;87;21554;-73
2022/09/02 01:57:02;;;;;;;4.20;2.45;;;;;;;11.38;70.57;100751.72;1646159;85;21138;-72
2022/09/02 01:59:29;;;;;;;2.67;2.02;;;;;;;11.33;70.67;100752.25;1613592;89;21090;-74
2022/09/02 02:01:54;;;;;;;;;;;;;;;11.29;71.50;100754.45;1619261;87;21093;-72
2022/09/02 02:04:23;;;;;;;2.80;2.43;;;;;;;11.26;71.88;100759.33;1625005;87;20165;-71
2022/09/02 02:06:51;;;;;;;2.67;2.47;;;;;;;11.16;72.29;100755.59;1614705;87;21079;-73
2022/09/02 02:09:19;;;;;;;5.47;1.97;;;;;;;11.15;72.63;100761.10;1646102;86;21077;-73
2022/09/02 02:11:46;;;;;;;7.22;2.55;;;;;;;11.14;72.74;100759.46;1627230;86;21016;-72
2022/09/02 02:14:15;;;;;;;2.40;2.20;;;;;;;11.13;72.91;100770.62;1638077;86;21038;-73
2022/09/02 02:16:47;;;;;;;4.03;2.30;;;;;;;11.07;72.94;100769.50;1657441;85;21031;-73
2022/09/02 02:19:13;;;;;;;4.10;2.25;;;;;;;11.03;73.05;100769.55;1641801;86;21069;-72
2022/09/02 02:21:40;;;;;;;4.60;3.77;;;;;;;11.04;73.09;100768.55;1643411;86;21146;-73
2022/09/02 02:24:07;;;;;;;6.78;3.37;;;;;;;11.03;73.06;100765.55;1642843;85;21010;-73
2022/09/02 02:26:35;;;;;;;2.83;2.62;;;;;;;11.02;73.01;100773.24;1637513;86;21066;-73
2022/09/02 02:29:03;;;;;;;2.85;2.65;;;;;;;11.00;73.32;100769.92;1657872;85;21624;-73
2022/09/02 02:31:30;;;;;;;3.50;2.33;;;;;;;11.03;73.30;100768.21;1670152;85;21071;-71
2022/09/02 02:33:56;;;;;;;3.45;2.27;;;;;;;11.06;73.08;100769.19;1654343;85;21030;-75
2022/09/02 02:36:22;;;;;;;2.35;2.15;;;;;;;11.08;72.91;100771.69;1673251;84;21002;-74
2022/09/02 02:38:49;;;;;;;2.75;1.90;;;;;;;11.08;72.85;100766.35;1638999;86;21165;-72
2022/09/02 02:41:16;;;;;;;3.13;1.27;;;;;;;11.07;72.78;100770.83;1612652;88;21021;-75
2022/09/02 02:43:44;;;;;;;2.45;2.10;;;;;;;11.06;73.56;100774.53;1614350;88;21151;-72
2022/09/02 02:46:10;;;;;;;;;;;;;;;11.11;73.03;100769.97;1640337;86;21053;-73
2022/09/02 02:48:37;;;;;;;1.83;1.73;;;;;;;11.15;73.68;100774.44;1647645;86;20406;-72
2022/09/02 02:51:06;;;;;;;2.80;2.05;;;;;;;11.14;73.29;100775.47;1639403;86;28399;-73
2022/09/02 02:53:37;;;;;;;2.77;1.92;;;;;;;11.12;72.66;100776.16;1660961;84;304543;-73
2022/09/02 02:56:06;;;;;;;4.53;1.40;;;;;;;11.04;72.54;100774.40;1689539;84;21049;-73
2022/09/02 02:58:33;;;;;;;1.45;1.35;;;;;;;10.92;72.77;100775.31;1682410;84;21044;-73
2022/09/02 03:01:02;;;;;;;4.07;1.83;;;;;;;10.82;73.12;100779.56;1693377;84;20984;-74
2022/09/02 03:03:29;;;;;;;3.52;2.00;;;;;;;10.73;73.50;100781.97;1676323;84;21618;-75
2022/09/02 03:05:57;;;;;;;5.47;1.77;;;;;;;10.66;73.85;100788.53;1697364;83;20991;-74
2022/09/02 03:08:27;;;;;;;4.10;1.47;;;;;;;10.60;73.86;100789.73;1682191;83;21581;-73
2022/09/02 03:10:55;;;;;;;6.78;2.98;;;;;;;10.56;73.98;100788.43;1650968;85;21030;-74
2022/09/02 03:13:25;;;;;;;3.00;2.57;;;;;;;10.54;74.23;100792.60;1694613;82;21078;-74
2022/09/02 03:15:53;;;;;;;3.37;2.55;;;;;;;10.58;74.20;100797.08;1697057;82;21565;-71
2022/09/02 03:18:21;;;;;;;2.87;2.40;;;;;;;10.61;74.31;100794.07;1693351;83;21074;-73
2022/09/02 03:20:50;;;;;;;6.03;1.97;;;;;;;10.67;74.46;100797.34;1685016;83;21061;-72
2022/09/02 03:23:17;;;;;;;6.33;3.73;;;;;;;10.73;74.42;100793.14;1708210;83;21120;-72
2022/09/02 03:25:45;;;;;;;5.40;3.10;;;;;;;10.80;74.32;100795.43;1712807;83;21029;-72
2022/09/02 03:28:19;;;;;;;4.85;4.22;;;;;;;10.86;74.25;100798.70;1695354;83;21046;-73
2022/09/02 03:30:46;;;;;;;6.53;2.52;;;;;;;10.91;74.59;100804.34;1714960;83;21038;-74
2022/09/02 03:33:14;;;;;;;3.77;2.73;;;;;;;10.98;74.46;100803.95;1714617;83;21498;-74
2022/09/02 03:35:46;;;;;;;8.48;3.62;;;;;;;11.06;74.62;100808.39;1693754;83;22138;-74
2022/09/02 03:38:12;;;;;;;2.90;2.63;;;;;;;11.15;74.73;100805.12;1697689;83;21056;-78
2022/09/02 03:40:40;;;;;;;4.22;3.65;;;;;;;11.29;74.73;100814.50;1689142;83;20971;-76
2022/09/02 03:43:07;;;;;;;3.70;2.98;;;;;;;11.45;74.83;100822.87;1692627;83;20979;-75
2022/09/02 03:45:33;;;;;;;5.33;4.35;;;;;;;11.64;74.37;100827.33;1694693;84;20924;-79
2022/09/02 03:48:03;;;;;;;8.05;4.15;;;;;;;11.88;73.24;100833.77;1695017;83;20998;-79
2022/09/02 03:50:36;;;;;;;7.05;3.80;;;;;;;12.22;71.97;100831.53;1695442;83;21002;-79
2022/09/02 03:53:03;;;;;;;5.67;3.83;;;;;;;12.66;70.30;100834.61;1691766;83;20974;-76
2022/09/02 03:55:31;;;;;;;5.08;4.15;;;;;;;13.16;68.91;100830.64;1682152;83;21019;-79
2022/09/02 03:57:59;;;;;;;5.42;4.70;;;;;;;13.71;66.65;100839.74;1696732;83;20954;-81
2022/09/02 04:00:30;;;;;;;7.78;5.90;;;;;;;14.31;64.45;100834.64;1694360;82;21015;-78
2022/09/02 04:03:00;;;;;;;7.67;5.87;;;;;;;14.94;62.61;100839.80;1699436;82;21563;-77
2022/09/02 04:05:27;;;;;;;13.65;5.72;;;;;;;15.60;59.82;100842.16;1703029;82;21654;-79
2022/09/02 04:07:56;;;;;;;10.08;5.67;;;;;;;16.23;57.77;100842.11;1660077;84;21592;-77
2022/09/02 04:10:23;;;;;;;7.03;6.05;;;;;;;16.78;55.27;100845.12;1675554;83;20992;-78
2022/09/02 04:12:51;;;;;;;11.50;8.65;;;;;;;17.30;53.19;100849.84;1682834;83;21072;-80
2022/09/02 04:15:19;;;;;;;14.15;9.98;;;;;;;17.82;51.89;100844.69;1677431;83;21580;-78
2022/09/02 04:17:48;;;;;;;17.95;13.03;;;;;;;18.42;49.48;100844.00;1644130;84;21020;-76
2022/09/02 04:20:15;;;;;;;23.98;16.42;;;;;;;19.03;48.20;100839.43;1669857;84;20998;-73
2022/09/02 04:22:41;;;;;;;25.50;17.92;;;;;;;19.70;46.13;100845.84;1666767;84;20967;-73
2022/09/02 04:25:09;;;;;;;26.93;21.05;;;;;;;20.33;44.46;100839.36;1663041;84;21016;-73
2022/09/02 04:27:37;;;;;;;25.85;20.20;;;;;;;20.82;42.19;100841.09;1696349;83;21069;-74
2022/09/02 04:30:07;;;;;;;27.60;20.82;;;;;;;21.18;40.88;100847.12;1678634;83;21058;-74
2022/09/02 04:32:36;;;;;;;26.45;21.57;;;;;;;21.44;40.14;100851.59;1679823;84;21049;-74
2022/09/02 04:35:04;;;;;;;29.35;22.50;;;;;;;21.65;39.77;100841.34;1681418;83;21018;-73
2022/09/02 04:37:32;;;;;;;26.45;21.80;;;;;;;21.93;39.04;100839.02;1678407;85;21066;-75
2022/09/02 04:39:59;;;;;;;29.27;21.90;;;;;;;22.32;38.27;100844.92;1689683;83;21066;-74
2022/09/02 04:42:26;;;;;;;30.85;23.83;;;;;;;22.64;37.18;100849.09;1655074;85;21562;-72
2022/09/02 04:44:55;;;;;;;30.95;24.10;;;;;;;22.70;36.96;100852.13;1689881;83;21067;-70
2022/09/02 04:47:22;;;;;;;39.15;28.23;;;;;;;22.72;37.03;100849.98;1683935;83;21015;-73
2022/09/02 04:49:50;;;;;;;39.45;28.70;;;;;;;22.79;36.29;100848.94;1673169;84;22362;-70
2022/09/02 04:52:18;;;;;;;33.80;28.15;;;;;;;22.80;36.71;100854.67;1683048;84;21073;-76
2022/09/02 04:54:45;;;;;;;43.87;32.13;;;;;;;22.71;36.58;100859.73;1691050;83;21038;-73
2022/09/02 04:57:11;;;;;;;44.42;32.33;;;;;;;22.63;36.13;100856.95;1701487;82;21016;-72
2022/09/02 04:59:38;;;;;;;43.68;33.33;;;;;;;22.63;36.51;100858.30;1677150;83;21481;-75
2022/09/02 05:02:08;;;;;;;47.98;38.50;;;;;;;22.79;36.48;100860.63;1675085;84;21021;-74
2022/09/02 05:04:35;;;;;;;53.35;40.55;;;;;;;22.97;35.74;100862.16;1660527;84;21175;-74
2022/09/02 05:07:03;;;;;;;51.40;41.30;;;;;;;22.97;35.59;100861.34;1674029;84;20990;-75
2022/09/02 05:09:31;;;;;;;58.63;43.65;;;;;;;22.81;35.85;100861.73;1670295;84;21008;-73
2022/09/02 05:12:03;;;;;;;63.23;46.25;;;;;;;22.73;35.97;100867.09;1685636;83;21355;-74
2022/09/02 05:14:31;;;;;;;61.13;47.20;;;;;;;22.54;36.12;100867.44;1694422;84;21045;-75
2022/09/02 05:17:00;;;;;;;65.60;50.38;;;;;;;22.41;36.46;100863.77;1684152;84;21181;-74
2022/09/02 05:19:26;;;;;;;65.12;50.10;;;;;;;22.35;37.16;100867.50;1692501;83;21032;-78
2022/09/02 05:21:55;;;;;;;67.42;51.80;;;;;;;22.48;36.67;100868.47;1701886;83;22043;-79
2022/09/02 05:24:23;;;;;;;71.75;52.75;;;;;;;22.59;36.44;100863.16;1683615;84;21283;-75
2022/09/02 05:26:49;;;;;;;66.33;51.63;;;;;;;22.63;36.55;100862.38;1685136;84;20988;-76
2022/09/02 05:29:19;;;;;;;69.32;52.13;;;;;;;22.70;36.83;100864.36;1661342;84;21021;-79
2022/09/02 05:31:47;;;;;;;72.50;54.10;;;;;;;22.80;36.53;100866.91;1663975;84;20986;-78
2022/09/02 05:34:15;;;;;;;68.95;53.20;;;;;;;22.83;36.38;100863.65;1714413;81;21501;-77
2022/09/02 05:36:42;;;;;;;75.05;54.93;;;;;;;22.87;36.33;100871.05;1698883;82;21026;-78
2022/09/02 05:39:09;;;;;;;74.50;55.00;;;;;;;22.90;36.32;100866.98;1720079;82;21123;-81
2022/09/02 05:41:35;;;;;;;66.22;50.50;;;;;;;22.90;36.82;100871.06;1691832;83;20990;-74
2022/09/02 05:44:05;;;;;;;61.90;51.10;;;;;;;22.97;36.31;100873.58;1727576;82;21017;-83
2022/09/02 05:46:33;;;;;;;65.65;51.45;;;;;;;22.80;36.54;100873.14;1692345;83;21564;-79
2022/09/02 05:49:06;;;;;;;71.70;54.80;;;;;;;22.42;37.21;100875.47;1715882;81;21536;-73
2022/09/02 05:51:43;;;;;;;66.35;53.85;;;;;;;22.15;37.78;100878.90;1712061;82;21113;-75
2022/09/02 05:54:17;;;;;;;74.07;53.80;;;;;;;21.94;38.05;100877.30;1685246;83;21073;-74
2022/09/02 05:56:47;;;;;;;69.45;57.13;;;;;;;21.88;38.20;100881.55;1699007;82;21115;-79
2022/09/02 05:59:14;;;;;;;66.67;49.73;;;;;;;21.83;38.37;100882.30;1714939;82;21527;-79
2022/09/02 06:01:42;;;;;;;65.45;48.25;;;;;;;21.85;38.32;100884.23;1697372;83;21616;-79
2022/09/02 06:04:10;;;;;;;65.65;49.20;;;;;;;21.88;38.39;100885.06;1692374;82;21507;-79
2022/09/02 06:06:41;;;;;;;59.33;46.50;;;;;;;21.83;38.31;100886.38;1690723;83;21105;-81
2022/09/02 06:09:11;;;;;;;58.30;45.25;;;;;;;21.65;38.59;100888.81;1683193;83;21009;-72
2022/09/02 06:11:43;;;;;;;61.23;44.80;;;;;;;21.51;38.93;100886.16;1712508;82;21130;-79
2022/09/02 06:14:12;;;;;;;58.23;45.35;;;;;;;21.53;39.22;100892.14;1700816;81;21034;-76
2022/09/02 06:16:43;;;;;;;63.60;43.35;;;;;;;21.65;38.64;100893.44;1715663;82;21075;-78
2022/09/02 06:19:11;;;;;;;65.62;49.25;;;;;;;21.64;38.58;100893.95;1698759;82;21039;-76
2022/09/02 06:21:41;;;;;;;60.75;46.98;;;;;;;21.72;38.73;100896.80;1713710;82;22128;-77
2022/09/02 06:24:10;;;;;;;51.68;35.95;;;;;;;21.70;38.64;100898.39;1713698;82;21126;-76
2022/09/02 06:26:40;;;;;;;41.75;32.73;;;;;;;21.57;38.60;100902.27;1718008;82;21115;-76
2022/09/02 06:29:08;;;;;;;46.20;33.38;;;;;;;21.29;38.46;100901.79;1680048;83;20974;-77
2022/09/02 06:31:42;;;;;;;30.08;25.95;;;;;;;21.01;39.50;100908.09;1709804;82;21472;-76
2022/09/02 06:34:11;;;;;;;30.57;24.02;;;;;;;20.98;39.44;100903.14;1682821;84;21630;-75
2022/09/02 06:36:39;;;;;;;29.55;23.45;;;;;;;21.31;39.80;100906.97;1687958;84;20946;-76
2022/09/02 06:39:06;;;;;;;32.48;26.23;;;;;;;21.70;38.07;100907.05;1686591;84;21149;-76
2022/09/02 06:41:33;;;;;;;32.25;24.85;;;;;;;21.78;38.20;100908.00;1692938;83;21053;-76
2022/09/02 06:44:04;;;;;;;37.53;27.70;;;;;;;21.81;37.44;100898.53;1711400;82;21088;-77
2022/09/02 06:46:39;;;;;;;36.05;28.92;;;;;;;21.85;37.57;100902.38;1642234;85;21025;-77
2022/09/02 06:49:07;;;;;;;38.90;30.92;;;;;;;21.76;37.59;100904.72;1687652;82;21040;-77
2022/09/02 06:51:41;;;;;;;39.10;31.55;;;;;;;21.44;38.09;100908.55;1695048;83;21041;-78
2022/09/02 06:54:12;;;;;;;37.65;30.17;;;;;;;21.18;38.69;100914.88;1702389;81;20984;-76
2022/09/02 06:56:39;;;;;;;38.02;29.57;;;;;;;20.97;38.96;100913.17;1675237;84;21434;-76
2022/09/02 06:59:07;;;;;;;35.73;24.35;;;;;;;20.69;39.66;100914.00;1669172;84;20992;-75
2022/09/02 07:01:45;;;;;;;24.60;18.42;;;;;;;20.16;40.23;100880.70;1696843;82;21102;-78
2022/09/02 07:07:05;;;;;;;20.23;13.75;;;;;;;19.77;40.65;100918.80;1670550;83;21109;-77
2022/09/02 07:09:34;;;;;;;15.48;13.72;;;;;;;19.41;40.88;100923.32;1692719;82;21024;-77
2022/09/02 07:12:07;;;;;;;20.85;12.63;;;;;;;19.16;41.09;100927.03;1696042;82;21108;-76
2022/09/02 07:14:40;;;;;;;20.30;13.90;;;;;;;18.93;41.23;100936.41;1670259;84;21065;-77
2022/09/02 07:17:11;;;;;;;15.15;11.15;;;;;;;18.75;42.02;100936.72;1672986;84;20973;-78
2022/09/02 07:19:39;;;;;;;21.17;13.80;;;;;;;18.67;41.84;100931.11;1695441;83;21009;-76
2022/09/02 07:22:06;;;;;;;;;;;;;;;18.70;42.23;100937.92;1681511;81;21101;-77
2022/09/02 07:24:32;;;;;;;;;;;;;;;18.70;40.84;100930.34;1690570;83;20196;-76
2022/09/02 07:26:59;;;;;;;8.93;7.15;;;;;;;18.66;40.97;100938.08;1700580;82;20101;-76
2022/09/02 07:29:26;;;;;;;11.33;9.38;;;;;;;18.62;39.73;100941.75;1703947;82;20989;-76
2022/09/02 07:31:52;;;;;;;14.13;11.40;;;;;;;18.60;39.89;100938.99;1693467;83;21021;-76
2022/09/02 07:34:20;;;;;;;12.93;9.18;;;;;;;18.54;40.44;100935.86;1690008;82;20966;-76
2022/09/02 07:36:47;;;;;;;8.70;5.92;;;;;;;18.52;40.14;100939.31;1704129;80;20989;-78
2022/09/02 07:39:16;;;;;;;8.13;6.30;;;;;;;18.51;38.10;100941.16;1659173;85;21056;-74
2022/09/02 07:41:48;;;;;;;7.20;5.97;;;;;;;18.41;38.44;100939.00;1698186;82;21016;-77
2022/09/02 07:44:16;;;;;;;6.97;4.28;;;;;;;18.30;38.56;100949.20;1695680;82;21465;-78
2022/09/02 07:46:43;;;;;;;7.15;4.40;;;;;;;18.25;38.23;100941.79;1640082;85;21018;-75
2022/09/02 07:49:11;;;;;;;6.30;3.52;;;;;;;18.32;38.48;100946.28;1695013;83;20996;-74
2022/09/02 07:51:42;;;;;;;4.72;2.60;;;;;;;18.41;37.31;100944.40;1660163;84;21127;-77
2022/09/02 07:54:11;;;;;;;5.03;4.05;;;;;;;18.46;37.10;100941.86;1704995;82;21012;-77
2022/09/02 07:56:42;;;;;;;7.45;4.08;;;;;;;18.55;37.62;100937.48;1704720;82;21460;-76
2022/09/02 07:59:09;;;;;;;13.88;6.20;;;;;;;18.57;38.12;100942.13;1714185;82;21033;-76
2022/09/02 08:01:37;;;;;;;3.27;2.92;;;;;;;18.66;37.95;100942.95;1644022;85;21011;-76
2022/09/02 08:04:05;;;;;;;4.97;4.42;;;;;;;18.66;37.84;100932.67;1696006;83;21069;-76
2022/09/02 08:06:32;;;;;;;2.35;2.10;;;;;;;18.60;38.30;100934.95;1664187;84;21521;-75
2022/09/02 08:09:00;;;;;;;1.87;1.77;;;;;;;18.64;36.86;100929.38;1713363;80;20993;-76
2022/09/02 08:11:26;;;;;;;5.22;1.57;;;;;;;18.60;36.98;100936.30;1669549;84;20990;-76
2022/09/02 08:13:53;;;;;;;3.60;0.93;;;;;;;18.61;37.00;100933.38;1697961;82;21956;-76
2022/09/02 08:16:21;;;;;;;1.50;1.00;;;;;;;18.76;36.11;100932.98;1695237;82;21053;-75
2022/09/02 08:18:47;;;;;;;1.02;0.93;;;;;;;18.71;34.91;100932.02;1673438;84;21040;-76
2022/09/02 08:21:13;;;;;;;5.40;1.12;;;;;;;18.62;35.20;100938.23;1707882;79;21469;-75
2022/09/02 08:23:39;;;;;;;1.42;0.95;;;;;;;18.57;35.06;100935.38;1701844;82;21544;-75
2022/09/02 08:26:07;;;;;;;0.62;0.62;;;;;;;18.47;34.98;100938.09;1703553;82;20961;-72
2022/09/02 08:28:34;;;;;;;3.55;0.62;;;;;;;18.41;34.98;100928.74;1713615;82;21010;-71
2022/09/02 08:31:04;;;;;;;;;;;;;;;18.29;34.93;100921.93;1660269;85;21077;-71
2022/09/02 08:33:30;;;;;;;2.67;0.30;;;;;;;18.28;34.83;100929.18;1687092;83;20180;-71
2022/09/02 08:36:03;;;;;;;;;;;;;;;18.34;34.80;100927.98;1696385;83;21070;-71
2022/09/02 08:39:29;;;;;;;5.70;0.50;;;;;;;18.57;33.95;100932.69;1723267;79;73905;-71
2022/09/02 08:42:17;;;;;;;1.27;0.10;;;;;;;18.52;32.83;100927.16;1672111;83;1606959;-73
2022/09/02 08:44:44;;;;;;;2.05;0.10;;;;;;;18.34;32.49;100922.59;1694517;83;21108;-73
2022/09/02 08:47:15;;;;;;;0.85;0.10;;;;;;;18.15;32.51;100922.59;1702992;83;21514;-71
2022/09/02 08:49:48;;;;;;;0.37;0.15;;;;;;;18.13;32.67;100922.52;1708760;83;21138;-72
2022/09/02 08:52:31;;;;;;;1.32;0.20;;;;;;;18.14;33.01;100926.84;1708090;83;21086;-71
2022/09/02 08:54:58;;;;;;;0.90;0.57;;;;;;;18.16;33.37;100923.40;1703612;83;21032;-72
2022/09/02 08:57:26;;;;;;;0.10;0.08;;;;;;;18.19;32.92;100925.66;1715662;83;21035;-72
2022/09/02 08:59:59;;;;;;;1.55;0.20;;;;;;;18.22;32.43;100914.43;1714236;83;21095;-72
2022/09/02 09:02:46;;;;;;;0.20;0.10;;;;;;;18.27;32.26;100917.25;1708768;83;21084;-72
2022/09/02 09:05:43;;;;;;;0.65;0.10;;;;;;;18.32;32.68;100912.02;1704315;83;21012;-75
2022/09/02 09:08:30;;;;;;;3.98;0.20;;;;;;;18.39;32.04;100907.38;1690742;83;21091;-72
2022/09/02 09:11:16;;;;;;;1.77;0.30;;;;;;;18.43;32.54;100909.09;1701692;83;21060;-73
2022/09/02 09:13:57;;;;;;;;;;;;;;;18.58;33.03;100901.95;1704678;83;21068;-71
2022/09/02 09:16:56;;;;;;;0.50;0.30;;;;;;;18.73;32.57;100905.06;1703953;83;20214;-71
2022/09/02 09:19:52;;;;;;;0.80;0.25;;;;;;;18.77;32.41;100902.20;1701123;83;21070;-72
2022/09/02 09:22:24;;;;;;;0.50;0.23;;;;;;;18.85;32.10;100914.59;1704681;82;21033;-72
2022/09/02 09:24:50;;;;;;;0.60;0.23;;;;;;;18.84;31.75;100907.02;1709363;83;21063;-72
2022/09/02 09:27:20;;;;;;;1.20;0.30;;;;;;;18.85;32.14;100902.44;1701985;82;22109;-71
2022/09/02 09:29:49;;;;;;;2.08;0.62;;;;;;;18.93;32.38;100906.69;1708839;82;21116;-73
2022/09/02 09:32:38;;;;;;;2.10;1.07;;;;;;;18.99;32.77;100903.09;1698829;83;21085;-73
2022/09/02 09:35:13;;;;;;;2.42;0.85;;;;;;;19.04;32.78;100905.90;1702099;83;21579;-73
2022/09/02 09:37:49;;;;;;;0.50;0.40;;;;;;;19.04;32.11;100896.45;1704173;82;21276;-73
2022/09/02 09:40:23;;;;;;;1.10;0.93;;;;;;;18.98;32.74;100901.42;1701491;81;21008;-72
2022/09/02 09:43:04;;;;;;;1.22;0.50;;;;;;;18.98;33.02;100903.59;1703852;83;21048;-72
2022/09/02 09:45:40;;;;;;;2.72;0.80;;;;;;;19.02;32.98;100907.51;1696594;83;21011;-73
2022/09/02 09:48:18;;;;;;;3.95;0.40;;;;;;;19.04;32.76;100904.05;1698295;83;21024;-72
2022/09/02 09:50:47;;;;;;;0.88;0.62;;;;;;;19.09;32.92;100906.04;1708710;82;21016;-71
2022/09/02 09:53:24;;;;;;;2.77;0.95;;;;;;;19.13;33.20;100905.05;1704961;82;21035;-73
2022/09/02 09:56:01;;;;;;;4.17;1.23;;;;;;;19.17;33.38;100905.70;1713137;82;21036;-71
2022/09/02 09:58:44;;;;;;;3.50;2.35;;;;;;;19.18;33.13;100898.44;1709984;82;21079;-72
2022/09/02 10:01:30;;;;;;;2.67;1.07;;;;;;;19.17;33.24;100905.70;1702446;83;21042;-73
2022/09/02 10:04:08;;;;;;;1.92;0.88;;;;;;;19.15;33.07;100905.11;1697262;83;21052;-74
2022/09/02 10:06:42;;;;;;;3.20;1.22;;;;;;;19.10;33.28;100909.05;1709263;83;21029;-73
2022/09/02 10:09:31;;;;;;;4.37;0.90;;;;;;;19.14;33.43;100905.36;1709636;82;21013;-73
2022/09/02 10:12:05;;;;;;;2.35;0.95;;;;;;;19.26;32.95;100905.66;1700359;83;21115;-73
2022/09/02 10:14:46;;;;;;;1.67;1.20;;;;;;;19.26;32.49;100904.31;1701913;83;21028;-71
2022/09/02 10:17:23;;;;;;;4.00;1.15;;;;;;;19.26;32.65;100904.31;1701246;83;21650;-74
2022/09/02 10:20:01;;;;;;;3.95;1.15;;;;;;;19.36;32.91;100892.11;1694047;83;21595;-74
2022/09/02 10:23:16;;;;;;;1.87;1.37;;;;;;;19.51;33.09;100904.63;1713674;82;21096;-73
2022/09/02 10:26:10;;;;;;;2.33;1.55;;;;;;;19.62;32.25;100896.24;1696004;82;21028;-73
2022/09/02 10:28:54;;;;;;;8.25;2.15;;;;;;;19.58;32.51;100888.31;1701978;82;21932;-72
2022/09/02 10:31:25;;;;;;;1.92;1.05;;;;;;;19.56;32.73;100900.71;1722393;82;21057;-71
2022/09/02 10:34:21;;;;;;;5.33;1.57;;;;;;;19.60;32.27;100902.42;1688224;83;21113;-72
2022/09/02 10:37:05;;;;;;;6.45;2.20;;;;;;;19.54;32.34;100897.42;1655985;85;21002;-73
2022/09/02 10:39:40;;;;;;;2.95;1.60;;;;;;;19.49;32.51;100897.28;1628721;86;21142;-73
2022/09/02 10:42:18;;;;;;;3.75;1.50;;;;;;;19.49;32.59;100895.94;1652029;87;21098;-73
2022/09/02 10:45:01;;;;;;;6.72;1.57;;;;;;;19.56;32.47;100899.89;1591947;85;21061;-70
2022/09/02 10:47:40;;;;;;;3.30;2.12;;;;;;;19.43;32.20;100894.17;1650047;85;21058;-70
2022/09/02 10:50:14;;;;;;;4.62;2.35;;;;;;;19.36;32.52;100901.56;1667551;84;21579;-73
2022/09/02 10:55:43;;;;;;;2.52;2.05;;;;;;;19.38;31.75;100895.39;1878507;74;24266;-73
2022/09/02 10:58:37;;;;;;;;;;;;;;;19.14;31.95;100896.72;1812580;76;21008;-72
2022/09/02 11:01:06;;;;;;;3.75;2.27;;;;;;;18.98;32.60;100891.44;1813664;77;20259;-73
2022/09/02 11:03:47;;;;;;;3.10;2.50;;;;;;;18.90;32.78;100888.27;1821322;77;21203;-75
2022/09/02 11:06:21;;;;;;;3.22;2.60;;;;;;;18.90;33.23;100884.20;1776350;78;21053;-74
2022/09/02 11:09:03;;;;;;;3.40;3.08;;;;;;;19.02;33.41;100888.59;1804422;78;20996;-73
2022/09/02 11:11:39;;;;;;;3.87;2.60;;;;;;;19.16;32.79;100890.55;1802874;78;21012;-74
2022/09/02 11:14:18;;;;;;;2.65;2.45;;;;;;;19.26;31.81;100896.20;1774824;77;21151;-73
2022/09/02 11:17:11;;;;;;;3.65;3.35;;;;;;;19.25;31.98;100888.35;1775768;79;21091;-72
2022/09/02 11:20:01;;;;;;;5.37;4.72;;;;;;;19.28;32.33;100893.81;1754774;79;21021;-74
2022/09/02 11:22:52;;;;;;;4.20;3.80;;;;;;;19.30;32.24;100891.69;1767646;79;21071;-71
2022/09/02 11:25:36;;;;;;;8.68;7.78;;;;;;;19.25;31.85;100890.52;1769593;79;21027;-71
2022/09/02 11:28:22;;;;;;;6.92;3.50;;;;;;;19.24;31.80;100901.02;1781619;79;21097;-72
2022/09/02 11:31:18;;;;;;;8.58;4.05;;;;;;;19.25;31.79;100895.92;1777247;79;21541;-72
2022/09/02 11:34:01;;;;;;;6.72;5.65;;;;;;;19.17;31.81;100885.43;1751452;79;21003;-72
2022/09/02 11:36:28;;;;;;;7.62;4.80;;;;;;;19.07;32.60;100885.19;1744356;80;21101;-71
2022/09/02 11:39:00;;;;;;;4.83;4.12;;;;;;;19.05;32.50;100884.59;1759908;79;21012;-73
2022/09/02 11:41:49;;;;;;;11.53;5.25;;;;;;;19.06;32.33;100894.33;1759697;79;21585;-72
2022/09/02 11:44:44;;;;;;;6.45;4.47;;;;;;;19.09;32.32;100885.78;1740509;79;21026;-72
2022/09/02 11:47:46;;;;;;;6.65;4.70;;;;;;;19.14;32.38;100895.91;1773146;79;21151;-72
2022/09/02 11:50:35;;;;;;;5.72;4.58;;;;;;;19.18;31.96;100888.44;1752840;79;21072;-73